sensor_id;sensor_type;location;lat;lon;timestamp;P1;durP1;ratioP1;P2;durP2;ratioP2
36555;SDS011;40859;50.560;7.268;2022-11-04T00:01:37;4.68;;;2.70;;
36555;SDS011;40859;50.560;7.268;2022-11-04T00:04:03;4.40;;;2.95;;
36555;SDS011;40859;50.560;7.268;2022-11-04T00:06:30;4.80;;;2.22;;
36555;SDS011;40859;50.560;7.268;2022-11-04T00:08:57;7.07;;;3.20;;
36555;SDS011;40859;50.560;7.268;2022-11-04T00:11:24;7.30;;;2.55;;
36555;SDS011;40859;50.560;7.268;2022-11-04T00:15:24;5.32;;;2.78;;
36555;SDS011;40859;50.560;7.268;2022-11-04T00:18:09;5.25;;;2.95;;
36555;SDS011;40859;50.560;7.268;2022-11-04T00:20:35;13.60;;;5.40;;
36555;SDS011;40859;50.560;7.268;2022-11-04T00:26:04;85.28;;;31.35;;
36555;SDS011;40859;50.560;7.268;2022-11-04T00:28:49;84.47;;;31.00;;
36555;SDS011;40859;50.560;7.268;2022-11-04T00:31:17;88.95;;;32.33;;
36555;SDS011;40859;50.560;7.268;2022-11-04T03:34:15;25.17;;;10.80;;
36555;SDS011;40859;50.560;7.268;2022-11-04T03:36:42;26.37;;;10.40;;
36555;SDS011;40859;50.560;7.268;2022-11-04T03:39:08;25.65;;;9.60;;
36555;SDS011;40859;50.560;7.268;2022-11-04T03:41:37;26.20;;;11.57;;
36555;SDS011;40859;50.560;7.268;2022-11-04T03:44:05;24.80;;;10.32;;
36555;SDS011;40859;50.560;7.268;2022-11-04T03:46:31;21.48;;;9.15;;
36555;SDS011;40859;50.560;7.268;2022-11-04T03:48:57;25.50;;;9.23;;
36555;SDS011;40859;50.560;7.268;2022-11-04T03:51:24;30.10;;;9.45;;
36555;SDS011;40859;50.560;7.268;2022-11-04T03:53:50;22.35;;;10.30;;
36555;SDS011;40859;50.560;7.268;2022-11-04T03:56:28;24.70;;;8.30;;
36555;SDS011;40859;50.560;7.268;2022-11-04T04:02:09;23.60;;;8.95;;
36555;SDS011;40859;50.560;7.268;2022-11-04T04:04:37;22.23;;;9.85;;
36555;SDS011;40859;50.560;7.268;2022-11-04T04:09:54;20.95;;;8.10;;
36555;SDS011;40859;50.560;7.268;2022-11-04T04:12:37;24.20;;;8.43;;
36555;SDS011;40859;50.560;7.268;2022-11-04T04:17:44;19.05;;;8.25;;
36555;SDS011;40859;50.560;7.268;2022-11-04T06:58:29;16.50;;;2.83;;
36555;SDS011;40859;50.560;7.268;2022-11-04T07:00:56;6.75;;;2.80;;
36555;SDS011;40859;50.560;7.268;2022-11-04T07:03:22;7.97;;;2.72;;
36555;SDS011;40859;50.560;7.268;2022-11-04T07:05:48;6.70;;;2.45;;
36555;SDS011;40859;50.560;7.268;2022-11-04T07:08:14;9.60;;;2.10;;
36555;SDS011;40859;50.560;7.268;2022-11-04T07:10:40;6.12;;;2.42;;
36555;SDS011;40859;50.560;7.268;2022-11-04T07:13:07;11.40;;;3.53;;
36555;SDS011;40859;50.560;7.268;2022-11-04T07:15:36;8.82;;;2.03;;
36555;SDS011;40859;50.560;7.268;2022-11-04T07:18:02;10.07;;;2.10;;
36555;SDS011;40859;50.560;7.268;2022-11-04T07:20:28;9.88;;;2.30;;
36555;SDS011;40859;50.560;7.268;2022-11-04T07:22:55;7.68;;;1.87;;
36555;SDS011;40859;50.560;7.268;2022-11-04T07:25:21;4.00;;;2.08;;
36555;SDS011;40859;50.560;7.268;2022-11-04T07:27:48;7.85;;;2.35;;
36555;SDS011;40859;50.560;7.268;2022-11-04T07:30:14;8.80;;;1.92;;
36555;SDS011;40859;50.560;7.268;2022-11-04T07:32:40;7.97;;;2.42;;
36555;SDS011;40859;50.560;7.268;2022-11-04T07:35:07;7.35;;;1.48;;
36555;SDS011;40859;50.560;7.268;2022-11-04T07:37:33;17.77;;;2.15;;
36555;SDS011;40859;50.560;7.268;2022-11-04T07:39:59;17.48;;;2.65;;
36555;SDS011;40859;50.560;7.268;2022-11-04T07:42:26;17.37;;;2.90;;
36555;SDS011;40859;50.560;7.268;2022-11-04T07:44:52;9.75;;;2.45;;
36555;SDS011;40859;50.560;7.268;2022-11-04T07:47:18;14.40;;;2.60;;
36555;SDS011;40859;50.560;7.268;2022-11-04T07:49:44;11.70;;;3.58;;
36555;SDS011;40859;50.560;7.268;2022-11-04T07:52:10;11.57;;;2.50;;
36555;SDS011;40859;50.560;7.268;2022-11-04T07:54:36;13.20;;;3.10;;
36555;SDS011;40859;50.560;7.268;2022-11-04T07:57:03;18.73;;;3.12;;
36555;SDS011;40859;50.560;7.268;2022-11-04T07:59:29;18.62;;;2.67;;
36555;SDS011;40859;50.560;7.268;2022-11-04T08:01:55;13.45;;;2.47;;
36555;SDS011;40859;50.560;7.268;2022-11-04T08:04:21;7.95;;;2.75;;
36555;SDS011;40859;50.560;7.268;2022-11-04T08:06:48;16.70;;;3.28;;
36555;SDS011;40859;50.560;7.268;2022-11-04T08:09:14;14.13;;;2.60;;
36555;SDS011;40859;50.560;7.268;2022-11-04T08:11:40;10.10;;;2.50;;
36555;SDS011;40859;50.560;7.268;2022-11-04T08:14:07;6.00;;;1.83;;
36555;SDS011;40859;50.560;7.268;2022-11-04T08:16:33;14.95;;;2.80;;
36555;SDS011;40859;50.560;7.268;2022-11-04T08:19:00;21.48;;;3.17;;
36555;SDS011;40859;50.560;7.268;2022-11-04T08:21:27;22.27;;;2.67;;
36555;SDS011;40859;50.560;7.268;2022-11-04T08:23:54;24.58;;;3.78;;
36555;SDS011;40859;50.560;7.268;2022-11-04T08:26:20;6.80;;;2.72;;
36555;SDS011;40859;50.560;7.268;2022-11-04T08:28:48;23.73;;;3.10;;
36555;SDS011;40859;50.560;7.268;2022-11-04T08:31:18;8.55;;;2.58;;
36555;SDS011;40859;50.560;7.268;2022-11-04T08:33:45;15.40;;;2.53;;
36555;SDS011;40859;50.560;7.268;2022-11-04T08:36:19;20.92;;;3.25;;
36555;SDS011;40859;50.560;7.268;2022-11-04T08:38:45;14.65;;;3.53;;
36555;SDS011;40859;50.560;7.268;2022-11-04T08:41:12;11.25;;;3.42;;
36555;SDS011;40859;50.560;7.268;2022-11-04T08:43:39;14.25;;;3.15;;
36555;SDS011;40859;50.560;7.268;2022-11-04T08:46:06;12.93;;;3.00;;
36555;SDS011;40859;50.560;7.268;2022-11-04T08:48:34;13.65;;;2.12;;
36555;SDS011;40859;50.560;7.268;2022-11-04T08:51:00;9.45;;;2.40;;
36555;SDS011;40859;50.560;7.268;2022-11-04T08:53:27;14.52;;;2.92;;
36555;SDS011;40859;50.560;7.268;2022-11-04T08:55:53;20.40;;;3.15;;
36555;SDS011;40859;50.560;7.268;2022-11-04T08:58:21;10.57;;;2.87;;
36555;SDS011;40859;50.560;7.268;2022-11-04T09:00:49;16.33;;;4.12;;
36555;SDS011;40859;50.560;7.268;2022-11-04T09:03:15;14.82;;;2.85;;
36555;SDS011;40859;50.560;7.268;2022-11-04T09:05:42;12.30;;;2.85;;
36555;SDS011;40859;50.560;7.268;2022-11-04T09:08:21;14.32;;;3.35;;
36555;SDS011;40859;50.560;7.268;2022-11-04T09:10:47;11.88;;;2.85;;
36555;SDS011;40859;50.560;7.268;2022-11-04T09:13:13;11.20;;;1.90;;
36555;SDS011;40859;50.560;7.268;2022-11-04T09:15:40;15.57;;;3.10;;
36555;SDS011;40859;50.560;7.268;2022-11-04T09:18:07;7.07;;;2.17;;
36555;SDS011;40859;50.560;7.268;2022-11-04T09:20:33;10.00;;;2.50;;
36555;SDS011;40859;50.560;7.268;2022-11-04T09:23:02;13.20;;;2.42;;
36555;SDS011;40859;50.560;7.268;2022-11-04T09:25:29;11.70;;;2.35;;
36555;SDS011;40859;50.560;7.268;2022-11-04T09:27:57;15.40;;;2.53;;
36555;SDS011;40859;50.560;7.268;2022-11-04T09:30:23;13.50;;;2.28;;
36555;SDS011;40859;50.560;7.268;2022-11-04T09:32:49;24.30;;;2.70;;
36555;SDS011;40859;50.560;7.268;2022-11-04T09:35:15;13.35;;;2.83;;
36555;SDS011;40859;50.560;7.268;2022-11-04T09:37:42;10.27;;;2.03;;
36555;SDS011;40859;50.560;7.268;2022-11-04T09:40:11;11.88;;;2.30;;
36555;SDS011;40859;50.560;7.268;2022-11-04T09:51:55;13.38;;;1.92;;
36555;SDS011;40859;50.560;7.268;2022-11-04T09:54:23;19.17;;;2.55;;
36555;SDS011;40859;50.560;7.268;2022-11-04T09:56:50;12.37;;;2.85;;
36555;SDS011;40859;50.560;7.268;2022-11-04T09:59:23;16.10;;;2.47;;
36555;SDS011;40859;50.560;7.268;2022-11-04T10:01:59;18.17;;;2.78;;
36555;SDS011;40859;50.560;7.268;2022-11-04T10:14:42;23.52;;;7.10;;
36555;SDS011;40859;50.560;7.268;2022-11-04T10:17:35;34.58;;;8.48;;
36555;SDS011;40859;50.560;7.268;2022-11-04T10:20:18;36.78;;;10.05;;
36555;SDS011;40859;50.560;7.268;2022-11-04T10:27:51;61.33;;;16.30;;
36555;SDS011;40859;50.560;7.268;2022-11-04T10:30:19;47.65;;;14.85;;
36555;SDS011;40859;50.560;7.268;2022-11-04T10:32:54;52.83;;;16.35;;
36555;SDS011;40859;50.560;7.268;2022-11-04T10:35:46;41.83;;;16.50;;
36555;SDS011;40859;50.560;7.268;2022-11-04T10:38:15;41.47;;;15.20;;
36555;SDS011;40859;50.560;7.268;2022-11-04T10:40:41;46.13;;;15.38;;
36555;SDS011;40859;50.560;7.268;2022-11-04T10:43:11;34.25;;;14.65;;
36555;SDS011;40859;50.560;7.268;2022-11-04T10:50:02;44.45;;;13.32;;
36555;SDS011;40859;50.560;7.268;2022-11-04T10:52:37;42.60;;;12.52;;
36555;SDS011;40859;50.560;7.268;2022-11-04T10:55:26;35.88;;;12.30;;
36555;SDS011;40859;50.560;7.268;2022-11-04T10:57:57;40.22;;;11.85;;
36555;SDS011;40859;50.560;7.268;2022-11-04T11:00:34;36.40;;;12.30;;
36555;SDS011;40859;50.560;7.268;2022-11-04T11:03:00;37.30;;;12.18;;
36555;SDS011;40859;50.560;7.268;2022-11-04T11:05:27;34.95;;;12.57;;
36555;SDS011;40859;50.560;7.268;2022-11-04T11:07:54;32.60;;;10.93;;
36555;SDS011;40859;50.560;7.268;2022-11-04T11:10:25;28.70;;;11.90;;
36555;SDS011;40859;50.560;7.268;2022-11-04T11:13:01;30.55;;;11.48;;
36555;SDS011;40859;50.560;7.268;2022-11-04T11:15:32;31.87;;;11.88;;
36555;SDS011;40859;50.560;7.268;2022-11-04T11:21:12;35.28;;;10.68;;
36555;SDS011;40859;50.560;7.268;2022-11-04T11:23:43;32.38;;;11.60;;
36555;SDS011;40859;50.560;7.268;2022-11-04T11:26:18;27.23;;;10.88;;
36555;SDS011;40859;50.560;7.268;2022-11-04T11:28:48;23.30;;;9.70;;
36555;SDS011;40859;50.560;7.268;2022-11-04T11:31:15;28.55;;;10.13;;
36555;SDS011;40859;50.560;7.268;2022-11-04T11:33:58;29.45;;;10.68;;
36555;SDS011;40859;50.560;7.268;2022-11-04T11:39:17;27.45;;;9.90;;
36555;SDS011;40859;50.560;7.268;2022-11-04T11:45:15;26.30;;;9.40;;
36555;SDS011;40859;50.560;7.268;2022-11-04T11:47:41;23.60;;;8.82;;
36555;SDS011;40859;50.560;7.268;2022-11-04T11:50:18;27.27;;;10.10;;
36555;SDS011;40859;50.560;7.268;2022-11-04T11:52:45;21.65;;;8.05;;
36555;SDS011;40859;50.560;7.268;2022-11-04T11:55:25;24.45;;;8.95;;
36555;SDS011;40859;50.560;7.268;2022-11-04T11:58:54;24.25;;;8.57;;
36555;SDS011;40859;50.560;7.268;2022-11-04T12:05:17;21.92;;;8.13;;
36555;SDS011;40859;50.560;7.268;2022-11-04T12:07:49;20.62;;;8.63;;
36555;SDS011;40859;50.560;7.268;2022-11-04T12:10:25;22.10;;;7.80;;
36555;SDS011;40859;50.560;7.268;2022-11-04T12:13:04;19.27;;;7.15;;
36555;SDS011;40859;50.560;7.268;2022-11-04T12:15:35;19.58;;;7.40;;
36555;SDS011;40859;50.560;7.268;2022-11-04T12:18:22;16.20;;;7.20;;
36555;SDS011;40859;50.560;7.268;2022-11-04T12:21:27;20.48;;;8.55;;
36555;SDS011;40859;50.560;7.268;2022-11-04T12:30:07;21.30;;;6.45;;
36555;SDS011;40859;50.560;7.268;2022-11-04T12:43:23;22.37;;;6.28;;
36555;SDS011;40859;50.560;7.268;2022-11-04T12:49:24;14.85;;;5.87;;
36555;SDS011;40859;50.560;7.268;2022-11-04T12:52:01;29.20;;;6.10;;
36555;SDS011;40859;50.560;7.268;2022-11-04T12:54:44;17.73;;;6.82;;
36555;SDS011;40859;50.560;7.268;2022-11-04T13:02:36;23.10;;;6.57;;
36555;SDS011;40859;50.560;7.268;2022-11-04T13:06:05;20.65;;;5.28;;
36555;SDS011;40859;50.560;7.268;2022-11-04T13:08:39;19.30;;;6.72;;
36555;SDS011;40859;50.560;7.268;2022-11-04T13:11:11;18.37;;;5.60;;
36555;SDS011;40859;50.560;7.268;2022-11-04T13:20:16;12.37;;;5.18;;
36555;SDS011;40859;50.560;7.268;2022-11-04T13:22:46;22.83;;;5.85;;
36555;SDS011;40859;50.560;7.268;2022-11-04T13:25:23;24.67;;;5.40;;
36555;SDS011;40859;50.560;7.268;2022-11-04T13:27:51;22.58;;;5.07;;
36555;SDS011;40859;50.560;7.268;2022-11-04T13:30:22;31.80;;;4.97;;
36555;SDS011;40859;50.560;7.268;2022-11-04T13:33:54;19.90;;;5.62;;
36555;SDS011;40859;50.560;7.268;2022-11-04T13:42:16;15.93;;;5.15;;
36555;SDS011;40859;50.560;7.268;2022-11-04T13:44:49;20.23;;;4.53;;
36555;SDS011;40859;50.560;7.268;2022-11-04T13:47:17;22.33;;;4.12;;
36555;SDS011;40859;50.560;7.268;2022-11-04T13:49:51;23.40;;;4.85;;
36555;SDS011;40859;50.560;7.268;2022-11-04T13:54:51;23.55;;;5.22;;
36555;SDS011;40859;50.560;7.268;2022-11-04T13:57:21;16.37;;;3.70;;
36555;SDS011;40859;50.560;7.268;2022-11-04T14:02:42;16.48;;;4.37;;
36555;SDS011;40859;50.560;7.268;2022-11-04T14:14:23;18.67;;;4.47;;
36555;SDS011;40859;50.560;7.268;2022-11-04T14:16:49;17.73;;;4.70;;
36555;SDS011;40859;50.560;7.268;2022-11-04T14:23:24;16.85;;;4.03;;
36555;SDS011;40859;50.560;7.268;2022-11-04T14:26:04;19.12;;;3.75;;
36555;SDS011;40859;50.560;7.268;2022-11-04T14:28:31;16.70;;;4.20;;
36555;SDS011;40859;50.560;7.268;2022-11-04T14:31:04;14.52;;;3.85;;
36555;SDS011;40859;50.560;7.268;2022-11-04T14:33:54;11.98;;;4.10;;
36555;SDS011;40859;50.560;7.268;2022-11-04T14:36:25;12.20;;;3.35;;
36555;SDS011;40859;50.560;7.268;2022-11-04T14:48:17;17.40;;;3.55;;
36555;SDS011;40859;50.560;7.268;2022-11-04T14:50:44;10.75;;;3.53;;
36555;SDS011;40859;50.560;7.268;2022-11-04T14:53:13;16.27;;;3.40;;
36555;SDS011;40859;50.560;7.268;2022-11-04T14:55:41;10.55;;;2.97;;
36555;SDS011;40859;50.560;7.268;2022-11-04T14:58:21;5.82;;;2.83;;
36555;SDS011;40859;50.560;7.268;2022-11-04T15:00:52;6.82;;;2.83;;
36555;SDS011;40859;50.560;7.268;2022-11-04T15:03:25;14.77;;;3.50;;
36555;SDS011;40859;50.560;7.268;2022-11-04T15:05:58;15.87;;;3.20;;
36555;SDS011;40859;50.560;7.268;2022-11-04T15:08:29;14.30;;;2.78;;
36555;SDS011;40859;50.560;7.268;2022-11-04T15:11:00;21.35;;;3.08;;
36555;SDS011;40859;50.560;7.268;2022-11-04T15:13:27;11.38;;;2.97;;
36555;SDS011;40859;50.560;7.268;2022-11-04T15:15:53;6.70;;;2.50;;
36555;SDS011;40859;50.560;7.268;2022-11-04T15:18:21;8.32;;;2.35;;
36555;SDS011;40859;50.560;7.268;2022-11-04T15:20:49;13.40;;;2.83;;
36555;SDS011;40859;50.560;7.268;2022-11-04T15:23:21;19.75;;;2.37;;
36555;SDS011;40859;50.560;7.268;2022-11-04T15:25:49;10.57;;;2.17;;
36555;SDS011;40859;50.560;7.268;2022-11-04T15:28:26;9.90;;;2.22;;
36555;SDS011;40859;50.560;7.268;2022-11-04T15:31:54;8.18;;;2.00;;
36555;SDS011;40859;50.560;7.268;2022-11-04T15:34:20;11.60;;;1.90;;
36555;SDS011;40859;50.560;7.268;2022-11-04T15:36:47;10.15;;;1.90;;
36555;SDS011;40859;50.560;7.268;2022-11-04T15:39:20;7.00;;;2.60;;
36555;SDS011;40859;50.560;7.268;2022-11-04T15:41:47;5.28;;;2.00;;
36555;SDS011;40859;50.560;7.268;2022-11-04T15:44:32;6.80;;;2.05;;
36555;SDS011;40859;50.560;7.268;2022-11-04T15:47:17;6.78;;;2.17;;
36555;SDS011;40859;50.560;7.268;2022-11-04T15:49:45;5.78;;;1.92;;
36555;SDS011;40859;50.560;7.268;2022-11-04T15:52:13;6.40;;;2.05;;
